Time,TemperatureF,DewpointF,PressureIn,WindDirection,WindDirectionDegrees,WindSpeedMPH,WindSpeedGustMPH,Humidity,HourlyPrecipIn,Conditions,Clouds,dailyrainin,SoftwareType,DateUTC
2013-02-16 00:13:00,32.1,31.0,30.02,West,262,0.0,0.0,96,0.00,,,0.00,weatherlink.com 1.10,2013-02-16 05:13:00,
2013-02-16 00:28:00,32.3,31.0,30.02,West,262,0.0,0.0,96,0.00,,,0.00,weatherlink.com 1.10,2013-02-16 05:28:00,
2013-02-16 00:43:00,32.4,31.0,30.02,West,262,0.0,0.0,96,0.00,,,0.00,weatherlink.com 1.10,2013-02-16 05:43:00,
2013-02-16 00:58:00,32.3,31.0,30.02,West,262,0.0,0.0,96,0.00,,,0.00,weatherlink.com 1.10,2013-02-16 05:58:00,
2013-02-16 01:13:00,32.3,31.0,30.02,SW,227,0.0,0.0,96,0.00,,,0.00,weatherlink.com 1.10,2013-02-16 06:13:00,
2013-02-16 01:28:00,31.8,31.0,30.02,SW,227,0.0,0.0,96,0.00,,,0.00,weatherlink.com 1.10,2013-02-16 06:28:00,
2013-02-16 01:43:00,31.5,31.0,30.01,SW,227,0.0,0.0,97,0.00,,,0.00,weatherlink.com 1.10,2013-02-16 06:43:00,
2013-02-16 01:58:00,31.3,31.0,30.01,SW,227,0.0,0.0,97,0.00,,,0.00,weatherlink.com 1.10,2013-02-16 06:58:00,
2013-02-16 02:13:00,31.4,31.0,30.00,SW,234,0.0,1.0,97,0.00,,,0.00,weatherlink.com 1.10,2013-02-16 07:13:00,
2013-02-16 02:28:00,31.5,31.0,30.00,WNW,285,0.0,1.0,97,0.00,,,0.00,weatherlink.com 1.10,2013-02-16 07:28:00,
2013-02-16 02:44:00,31.3,31.0,29.99,WNW,302,0.0,2.0,97,0.00,,,0.00,weatherlink.com 1.10,2013-02-16 07:44:00,
2013-02-16 02:59:00,31.2,31.0,29.99,NW,313,0.0,3.0,97,0.00,,,0.00,weatherlink.com 1.10,2013-02-16 07:59:00,
2013-02-16 03:14:00,31.0,30.0,29.99,NW,306,2.0,2.0,97,0.00,,,0.00,weatherlink.com 1.10,2013-02-16 08:14:00,
2013-02-16 03:29:00,30.6,30.0,29.98,NNW,345,0.0,3.0,97,0.00,,,0.00,weatherlink.com 1.10,2013-02-16 08:29:00,
2013-02-16 03:44:00,30.5,30.0,30.00,SW,218,0.0,2.0,97,0.00,,,0.00,weatherlink.com 1.10,2013-02-16 08:44:00,
2013-02-16 03:59:00,30.5,30.0,30.00,SW,218,0.0,0.0,97,0.00,,,0.00,weatherlink.com 1.10,2013-02-16 08:59:00,
2013-02-16 04:14:00,30.7,30.0,29.99,SW,218,0.0,0.0,97,0.00,,,0.00,weatherlink.com 1.10,2013-02-16 09:14:00,
2013-02-16 04:29:00,30.5,30.0,29.99,West,271,1.0,2.0,97,0.00,,,0.00,weatherlink.com 1.10,2013-02-16 09:29:00,
2013-02-16 04:44:00,30.7,30.0,29.99,WNW,294,0.0,2.0,97,0.00,,,0.00,weatherlink.com 1.10,2013-02-16 09:44:00,
2013-02-16 04:59:00,30.6,30.0,29.98,WSW,252,3.0,3.0,97,0.00,,,0.00,weatherlink.com 1.10,2013-02-16 09:59:00,
2013-02-16 05:14:00,30.5,30.0,29.98,WNW,300,2.0,3.0,98,0.00,,,0.00,weatherlink.com 1.10,2013-02-16 10:14:00,
2013-02-16 05:29:00,30.5,30.0,29.99,West,276,2.0,3.0,98,0.00,,,0.00,weatherlink.com 1.10,2013-02-16 10:29:00,
2013-02-16 05:44:00,30.3,30.0,29.99,West,271,1.0,2.0,98,0.00,,,0.00,weatherlink.com 1.10,2013-02-16 10:44:00,
2013-02-16 05:59:00,30.0,29.0,29.99,West,272,2.0,3.0,97,0.00,,,0.00,weatherlink.com 1.10,2013-02-16 10:59:00,
2013-02-16 06:14:00,30.0,29.0,29.99,WNW,301,0.0,3.0,97,0.00,,,0.00,weatherlink.com 1.10,2013-02-16 11:14:00,
2013-02-16 06:29:00,30.0,30.0,29.99,WNW,297,0.0,3.0,98,0.00,,,0.00,weatherlink.com 1.10,2013-02-16 11:29:00,
2013-02-16 06:44:00,30.1,30.0,30.00,WNW,284,1.0,3.0,98,0.00,,,0.00,weatherlink.com 1.10,2013-02-16 11:44:00,
2013-02-16 06:59:00,30.2,30.0,30.00,NW,309,2.0,3.0,98,0.00,,,0.00,weatherlink.com 1.10,2013-02-16 11:59:00,
2013-02-16 07:14:00,30.3,30.0,30.00,SSE,164,0.0,3.0,98,0.00,,,0.00,weatherlink.com 1.10,2013-02-16 12:14:00,
2013-02-16 07:29:00,30.3,30.0,30.00,West,269,0.0,3.0,98,0.00,,,0.00,weatherlink.com 1.10,2013-02-16 12:29:00,
2013-02-16 07:44:00,30.4,30.0,30.00,SW,236,0.0,3.0,98,0.00,,,0.00,weatherlink.com 1.10,2013-02-16 12:44:00,
2013-02-16 07:59:00,30.5,30.0,30.00,SW,233,0.0,2.0,98,0.00,,,0.00,weatherlink.com 1.10,2013-02-16 12:59:00,
2013-02-16 08:14:00,30.8,30.0,30.00,SW,233,0.0,0.0,98,0.00,,,0.00,weatherlink.com 1.10,2013-02-16 13:14:00,
2013-02-16 08:29:00,30.7,30.0,30.00,West,277,0.0,1.0,98,0.00,,,0.00,weatherlink.com 1.10,2013-02-16 13:29:00,
2013-02-16 08:44:00,30.9,30.0,30.00,West,277,0.0,1.0,98,0.00,,,0.00,weatherlink.com 1.10,2013-02-16 13:44:00,
2013-02-16 08:59:00,31.1,31.0,30.00,WSW,244,0.0,3.0,98,0.00,,,0.00,weatherlink.com 1.10,2013-02-16 13:59:00,
2013-02-16 09:14:00,31.0,30.0,30.00,NW,317,0.0,3.0,97,0.00,,,0.00,weatherlink.com 1.10,2013-02-16 14:14:00,
2013-02-16 09:29:00,30.9,30.0,29.99,NW,304,1.0,3.0,97,0.00,,,0.00,weatherlink.com 1.10,2013-02-16 14:29:00,
2013-02-16 09:44:00,31.0,30.0,29.99,West,267,0.0,4.0,96,0.00,,,0.00,weatherlink.com 1.10,2013-02-16 14:44:00,
2013-02-16 09:59:00,31.1,29.0,29.99,NNE,30,2.0,6.0,93,0.00,,,0.00,weatherlink.com 1.10,2013-02-16 14:59:00,
2013-02-16 10:14:00,31.4,29.0,29.99,NW,316,2.0,5.0,90,0.01,,,0.01,weatherlink.com 1.10,2013-02-16 15:14:00,
2013-02-16 10:29:00,32.2,29.0,29.99,West,271,0.0,5.0,88,0.02,,,0.02,weatherlink.com 1.10,2013-02-16 15:29:00,
2013-02-16 10:44:00,32.1,29.0,29.98,NW,325,2.0,4.0,87,0.05,,,0.05,weatherlink.com 1.10,2013-02-16 15:44:00,
2013-02-16 10:59:00,31.9,29.0,29.98,West,276,2.0,8.0,87,0.06,,,0.06,weatherlink.com 1.10,2013-02-16 15:59:00,
2013-02-16 11:14:00,32.3,29.0,29.98,West,277,0.0,7.0,86,0.07,,,0.08,weatherlink.com 1.10,2013-02-16 16:14:00,
2013-02-16 11:29:00,32.8,29.0,29.98,NE,49,1.0,4.0,86,0.07,,,0.09,weatherlink.com 1.10,2013-02-16 16:29:00,
2013-02-16 11:44:00,32.5,29.0,29.98,East,79,0.0,7.0,85,0.05,,,0.10,weatherlink.com 1.10,2013-02-16 16:44:00,
2013-02-16 12:00:00,32.4,29.0,29.97,WNW,285,3.0,7.0,86,0.05,,,0.11,weatherlink.com 1.10,2013-02-16 17:00:00,
2013-02-16 12:15:00,32.2,28.0,29.96,WSW,241,1.0,9.0,85,0.04,,,0.12,weatherlink.com 1.10,2013-02-16 17:15:00,
2013-02-16 12:30:00,32.5,28.0,29.96,WNW,296,3.0,7.0,83,0.03,,,0.12,weatherlink.com 1.10,2013-02-16 17:30:00,
2013-02-16 12:45:00,32.6,28.0,29.95,SSE,147,1.0,6.0,83,0.02,,,0.12,weatherlink.com 1.10,2013-02-16 17:45:00,
2013-02-16 13:00:00,32.6,28.0,29.94,NE,47,1.0,7.0,82,0.02,,,0.13,weatherlink.com 1.10,2013-02-16 18:00:00,
2013-02-16 13:15:00,32.5,26.0,29.93,ENE,63,3.0,6.0,78,0.01,,,0.13,weatherlink.com 1.10,2013-02-16 18:15:00,
2013-02-16 13:30:00,32.9,27.0,29.92,NNE,28,1.0,5.0,80,0.01,,,0.13,weatherlink.com 1.10,2013-02-16 18:30:00,
2013-02-16 13:45:00,32.8,27.0,29.92,ENE,74,3.0,7.0,78,0.02,,,0.14,weatherlink.com 1.10,2013-02-16 18:45:00,
2013-02-16 14:00:00,32.9,26.0,29.93,East,86,0.0,8.0,77,0.01,,,0.14,weatherlink.com 1.10,2013-02-16 19:00:00,
2013-02-16 14:15:00,32.8,25.0,29.93,WNW,303,1.0,9.0,74,0.01,,,0.14,weatherlink.com 1.10,2013-02-16 19:15:00,
2013-02-16 14:30:00,32.8,25.0,29.93,NNW,336,0.0,6.0,74,0.01,,,0.14,weatherlink.com 1.10,2013-02-16 19:30:00,
2013-02-16 14:45:00,32.6,25.0,29.92,West,279,1.0,6.0,74,0.00,,,0.14,weatherlink.com 1.10,2013-02-16 19:45:00,
2013-02-16 15:00:00,32.7,25.0,29.91,North,11,2.0,4.0,73,0.00,,,0.14,weatherlink.com 1.10,2013-02-16 20:00:00,
2013-02-16 15:15:00,32.6,24.0,29.92,NE,53,1.0,5.0,72,0.00,,,0.14,weatherlink.com 1.10,2013-02-16 20:15:00,
2013-02-16 15:30:00,32.2,24.0,29.91,NNE,24,1.0,6.0,73,0.00,,,0.14,weatherlink.com 1.10,2013-02-16 20:30:00,
2013-02-16 15:45:00,32.2,24.0,29.91,NNE,15,1.0,7.0,71,0.00,,,0.14,weatherlink.com 1.10,2013-02-16 20:45:00,
2013-02-16 16:00:00,32.1,25.0,29.91,ENE,67,0.0,6.0,74,0.00,,,0.14,weatherlink.com 1.10,2013-02-16 21:00:00,
2013-02-16 16:15:00,32.1,25.0,29.91,NE,42,2.0,5.0,74,0.00,,,0.14,weatherlink.com 1.10,2013-02-16 21:15:00,
2013-02-16 16:30:00,31.9,25.0,29.91,NE,51,0.0,8.0,74,0.00,,,0.14,weatherlink.com 1.10,2013-02-16 21:30:00,
2013-02-16 16:45:00,31.8,24.0,29.92,WNW,295,2.0,5.0,72,0.00,,,0.14,weatherlink.com 1.10,2013-02-16 21:45:00,
2013-02-16 17:00:00,31.8,24.0,29.92,ENE,62,1.0,4.0,72,0.00,,,0.14,weatherlink.com 1.10,2013-02-16 22:00:00,
2013-02-16 17:15:00,31.7,24.0,29.92,NW,311,0.0,3.0,72,0.00,,,0.14,weatherlink.com 1.10,2013-02-16 22:15:00,
2013-02-16 17:30:00,31.6,23.0,29.92,ENE,59,0.0,4.0,71,0.00,,,0.14,weatherlink.com 1.10,2013-02-16 22:30:00,
2013-02-16 17:45:00,31.2,22.0,29.91,West,279,1.0,7.0,69,0.00,,,0.14,weatherlink.com 1.10,2013-02-16 22:45:00,
2013-02-16 18:00:00,30.9,21.0,29.92,WSW,239,1.0,5.0,68,0.00,,,0.14,weatherlink.com 1.10,2013-02-16 23:00:00,
2013-02-16 18:15:00,30.8,21.0,29.91,ENE,67,3.0,5.0,67,0.00,,,0.14,weatherlink.com 1.10,2013-02-16 23:15:00,
2013-02-16 18:30:00,30.6,20.0,29.92,WNW,297,0.0,7.0,66,0.00,,,0.14,weatherlink.com 1.10,2013-02-16 23:30:00,
2013-02-16 18:45:00,30.5,21.0,29.91,ESE,103,0.0,3.0,67,0.00,,,0.14,weatherlink.com 1.10,2013-02-16 23:45:00,
2013-02-16 19:00:00,30.3,21.0,29.91,SE,138,2.0,3.0,68,0.00,,,0.14,weatherlink.com 1.10,2013-02-17 00:00:00,
2013-02-16 19:15:00,30.1,20.0,29.90,NE,50,1.0,7.0,67,0.00,,,0.14,weatherlink.com 1.10,2013-02-17 00:15:00,
2013-02-16 19:30:00,30.1,20.0,29.90,West,275,5.0,8.0,67,0.00,,,0.14,weatherlink.com 1.10,2013-02-17 00:30:00,
2013-02-16 19:45:00,30.0,20.0,29.90,WSW,250,3.0,6.0,67,0.00,,,0.14,weatherlink.com 1.10,2013-02-17 00:45:00,
2013-02-16 20:00:00,29.9,20.0,29.89,WNW,282,0.0,8.0,67,0.00,,,0.14,weatherlink.com 1.10,2013-02-17 01:00:00,
2013-02-16 20:15:00,29.8,21.0,29.89,West,259,1.0,5.0,69,0.00,,,0.14,weatherlink.com 1.10,2013-02-17 01:15:00,
2013-02-16 20:30:00,29.6,21.0,29.89,WSW,238,1.0,5.0,69,0.00,,,0.14,weatherlink.com 1.10,2013-02-17 01:30:00,
2013-02-16 20:45:00,29.4,20.0,29.89,WSW,242,0.0,3.0,69,0.00,,,0.14,weatherlink.com 1.10,2013-02-17 01:45:00,
2013-02-16 21:00:00,29.2,21.0,29.89,WSW,252,0.0,2.0,70,0.00,,,0.14,weatherlink.com 1.10,2013-02-17 02:00:00,
2013-02-16 21:15:00,29.1,21.0,29.88,South,172,0.0,2.0,71,0.00,,,0.14,weatherlink.com 1.10,2013-02-17 02:15:00,
2013-02-16 21:30:00,29.2,21.0,29.88,SW,229,0.0,2.0,70,0.00,,,0.14,weatherlink.com 1.10,2013-02-17 02:30:00,
2013-02-16 21:45:00,29.0,20.0,29.88,SSW,203,0.0,2.0,70,0.00,,,0.14,weatherlink.com 1.10,2013-02-17 02:45:00,
2013-02-16 22:00:00,29.0,20.0,29.88,SE,139,3.0,3.0,69,0.00,,,0.14,weatherlink.com 1.10,2013-02-17 03:00:00,
2013-02-16 22:15:00,29.1,19.0,29.88,SE,146,0.0,4.0,67,0.00,,,0.14,weatherlink.com 1.10,2013-02-17 03:15:00,
2013-02-16 22:30:00,29.2,18.0,29.87,WNW,290,4.0,5.0,62,0.00,,,0.14,weatherlink.com 1.10,2013-02-17 03:30:00,
2013-02-16 22:45:00,29.2,16.0,29.87,North,355,1.0,6.0,59,0.00,,,0.14,weatherlink.com 1.10,2013-02-17 03:45:00,
2013-02-16 23:01:00,29.0,15.0,29.87,WNW,302,2.0,8.0,56,0.00,,,0.14,weatherlink.com 1.10,2013-02-17 04:01:00,
2013-02-16 23:16:00,28.8,15.0,29.86,SSW,193,1.0,5.0,56,0.00,,,0.14,weatherlink.com 1.10,2013-02-17 04:16:00,
2013-02-16 23:31:00,28.6,15.0,29.86,SW,220,0.0,5.0,56,0.00,,,0.14,weatherlink.com 1.10,2013-02-17 04:31:00,
2013-02-16 23:46:00,28.3,15.0,29.86,East,90,3.0,7.0,58,0.00,,,0.14,weatherlink.com 1.10,2013-02-17 04:46:00,